Database: COMPET-N - COOP - 3PL - 4PL - CNDOOM

WAD: Doom | Doom 2 | TNT | Plutonia | AV | HR | Scythe | MM | MM2 | Requiem | CE
Category: speed | nmare | max | nm100s | tyson | pacifist | fast | respawn | nomo | misc | built | all
Highscore: ALL | IWAD | PWAD | Country | Continent

< Previous map       Next map >
Remove: wad | map | category | player | allE3M4
MapPlayerTimeDateFilenameCommentsDL
E3M4: House Of PainHi Jango38.002005-09-26e3m4-038.zip - 331
E3M4: House Of PainAdam Hegyi39.001999-11-08e3m4-039.zip - 178
E3M4: House Of PainAdam Hegyi42.001999-02-10e3m4-042.zip - 166
E3M4: House Of PainJonathan Rimmer45.001999-02-08e3m4-045.zip - 163
E3M4: House Of PainAdam Hegyi47.001998-08-15e3m4-047.zip - 175
E3M4: House Of PainAdam Hegyi49.001998-06-14e3m4-049.zip - 174
E3M4: House Of PainThomas Pilger53.001998-03-28e3m4-053.zip - 159
E3M4: House Of PainYonatan Donner57.001997-04-19e3m4-057.zip - 150
E3M4: House Of PainEelco de Vries2:31.001995-06-16e3m4-231.zip - 110
E3M4: House Of PainAdam Williamson47.001999-11-04n3m4-047.zip - 248
E3M4: House Of PainAdam Hegyi48.001998-05-10n3m4-048.zip - 163
E3M4: House Of PainAdam Hegyi56.001998-12-25n3m4-056.zip - 156
E3M4: House Of PainThomas Pilger58.001998-03-28n3m4-058.zip - 156
E3M4: House Of PainPeo Sjoblom1:01.001997-07-16n3m4-101.zip - 141
E3M4: House Of PainRobert J. Reevy1:09.001997-07-10n3m4-109.zip - 116
E3M4: House Of PainTatsuya Ito3:57.002019-01-22e3m4-357.zip - 327
E3M4: House Of PainRadek Pecka4:16.002001-11-29e3m4-416.zip - 271
E3M4: House Of PainAnders Johnsen4:24.001999-02-17e3m4-424.zip - 123
E3M4: House Of PainEelco de Vries5:29.001998-11-04e3m4-529.zip - 114
E3M4: House Of PainYonatan Donner5:36.001997-02-07e3m4-536.zip - 113
E3M4: House Of PainWade Cayton5:38.001996-06-19e3m4-538.zip - 96
E3M4: House Of PainKai-Uwe Humpert8:15.001996-05-15e3m4-815.zip - 115
E3M4: House Of PainEelco de Vries11:41.001995-06-06e34-1141.zip - 104
E3M4: House Of PainEelco de Vries11:49.001995-05-24e34-1149.zip - 120
E3M4: House Of PainRadek Pecka1:23.002003-07-02n3s4-123.zip - 270
E3M4: House Of PainJim Leonard1:29.002003-07-01n3s4-129.zip - 209
E3M4: House Of PainRadek Pecka1:31.002002-05-01n3s4-131.zip - 168
E3M4: House Of PainAdam Hegyi1:36.001999-06-26n3s4-136.zip - 159
E3M4: House Of PainSteffen Udluft1:47.001999-06-26n3s4-147.zip - 135
E3M4: House Of PainSteffen Udluft1:56.001999-06-25n3s4-156.zip - 133
E3M4: House Of PainAdam Hegyi1:57.001999-06-24n3s4-157.zip - 139
E3M4: House Of PainSteffen Udluft2:39.001999-06-24n3s4-239.zip - 98
E3M4: House Of PainSteffen Udluft3:04.001999-06-23n3s4-304.zip - 119
E3M4: House Of PainAdam Hegyi3:05.001999-06-23n3s4-305.zip - 136
E3M4: House Of PainJim Leonard6:22.002003-04-07t3m4-622.zip - 288
E3M4: House Of PainRadek Pecka6:55.002002-06-13t3m4-655.zip - 167
E3M4: House Of PainJim Leonard7:09.002002-06-08t3m4-709.zip - 200
E3M4: House Of PainRadek Pecka7:17.002001-01-18t3m4-717.zip - 150
E3M4: House Of PainAnders Johnsen8:22.001999-03-09t3m4-822.zip - 156
E3M4: House Of PainAndy Kempling10:52.001999-03-11t3m41052.zip - 142
E3M4: House Of PainPatrick Martin12:39.001997-05-30t3m41239.zip - 103
E3M4: House Of PainAdam Hegyi39.001999-11-08e3m4-039.zip - 276
E3M4: House Of PainAdam Williamson46.001999-10-31p3m4-046.zip - 182
E3M4: House Of PainVincent Catalaa47.001999-09-18p3m4-047.zip - 138
E3M4: House Of PainAndy Badorek1:00.001998-06-01p3m4-100.zip - 110
E3M4: House Of PainAndy Badorek1:06.001998-05-01p3m4-106.zip - 90
E3M4: House Of PainRobert J. Reevy1:36.001998-02-01p3m4-136.zip - 127
E3M4: House Of PainRadek Pecka5:26.002001-09-17f3m4-526.zip - 278
E3M4: House Of PainAnders Johnsen5:51.001999-04-06f3m4-551.zip - 168
E3M4: House Of PainSteffen Udluft10:32.001999-03-26f3m41032.zip - 139
E3M4: House Of PainRadek Pecka4:09.002000-11-27r3m4-409.zip - 248
E3M4: House Of PainChris Ratcliff4:49.002000-09-10r3m4-449.zip - 169
E3M4: House Of PainRobert J. Reevy5:34.001999-08-05r3m4-534.zip - 158
E3M4: House Of PainSteffen Udluft6:07.001998-01-10r3m4-607.zip - 148
E3M4: House Of PainArno Slagboom41.942000-05-03u3404194.zip - 266
Remove: wad | map | category | player | all